Time;durP1;ratioP1;P1;durP2;ratioP2;P2;SDS_P1;SDS_P2;PMS_P1;PMS_P2;Temp;Humidity;BMP_temperature;BMP_pressure;BME280_temperature;BME280_humidity;BME280_pressure;Samples;Min_cycle;Max_cycle;Signal;HPM_P1;HPM_P2
2021/05/18 00:00:39;;;;;;;0.70;0.70;;;8.60;99.90;;;;;;4749300;30;20056;-77
2021/05/18 00:03:15;;;;;;;0.52;0.52;;;8.60;99.90;;;;;;4750273;30;20079;-77
2021/05/18 00:05:49;;;;;;;0.73;0.73;;;8.70;99.90;;;;;;4749836;30;20058;-77
2021/05/18 00:08:18;;;;;;;0.75;0.75;;;8.60;99.90;;;;;;4730517;30;20048;-77
2021/05/18 00:13:44;;;;;;;3.45;1.83;;;8.60;99.90;;;;;;4749999;30;20048;-76
2021/05/18 00:16:13;;;;;;;3.42;0.60;;;8.60;99.90;;;;;;4749965;30;20068;-77
2021/05/18 00:18:41;;;;;;;0.60;0.60;;;8.70;99.90;;;;;;4750059;30;20529;-76
2021/05/18 00:21:09;;;;;;;0.60;0.60;;;8.70;99.90;;;;;;4749643;30;20056;-76
2021/05/18 00:23:38;;;;;;;0.70;0.70;;;8.70;99.90;;;;;;4749338;30;20068;-76
2021/05/18 00:26:08;;;;;;;2.95;0.90;;;8.70;99.90;;;;;;4749804;30;20048;-77
2021/05/18 00:28:37;;;;;;;1.90;0.73;;;8.70;99.90;;;;;;4749919;30;20055;-77
2021/05/18 00:31:05;;;;;;;0.50;0.50;;;8.80;99.90;;;;;;4749778;30;20067;-76
2021/05/18 00:33:33;;;;;;;0.60;0.60;;;8.80;99.90;;;;;;4749530;30;20056;-77
2021/05/18 00:36:03;;;;;;;0.60;0.60;;;8.80;99.90;;;;;;4749257;30;20067;-79
2021/05/18 00:38:31;;;;;;;1.10;0.80;;;8.80;99.90;;;;;;4749598;30;20056;-77
2021/05/18 00:41:05;;;;;;;2.05;0.52;;;8.80;99.90;;;;;;4749664;30;20059;-76
2021/05/18 00:43:34;;;;;;;0.60;0.60;;;8.90;99.90;;;;;;4750382;30;20056;-77
2021/05/18 00:46:04;;;;;;;1.10;1.10;;;8.80;99.90;;;;;;4747374;30;20820;-77
2021/05/18 00:48:32;;;;;;;1.65;0.95;;;8.80;99.90;;;;;;4731510;30;20060;-77
2021/05/18 00:51:18;;;;;;;1.00;0.50;;;8.80;99.90;;;;;;4741740;30;20071;-76
2021/05/18 00:53:46;;;;;;;0.93;0.93;;;8.80;99.90;;;;;;4733001;30;20066;-77
2021/05/18 00:59:07;;;;;;;0.80;0.80;;;8.80;99.90;;;;;;4750157;30;20435;-77
2021/05/18 01:01:35;;;;;;;1.60;0.77;;;8.70;99.90;;;;;;4749020;30;20052;-76
2021/05/18 01:04:03;;;;;;;0.60;0.60;;;8.70;99.90;;;;;;4749391;30;20068;-76
2021/05/18 01:06:31;;;;;;;0.85;0.60;;;8.60;99.90;;;;;;4749858;30;20075;-76
2021/05/18 01:09:08;;;;;;;0.60;0.60;;;8.60;99.90;;;;;;4748893;30;20052;-77
2021/05/18 01:11:43;;;;;;;0.60;0.60;;;8.60;99.90;;;;;;4749507;30;20064;-77
2021/05/18 01:14:15;;;;;;;0.60;0.60;;;8.60;99.90;;;;;;4749525;30;20411;-78
2021/05/18 01:16:49;;;;;;;0.98;0.70;;;8.60;99.90;;;;;;4748238;30;20059;-77
2021/05/18 01:19:22;;;;;;;0.57;0.52;;;8.70;99.90;;;;;;4748463;30;20052;-77
2021/05/18 01:21:51;;;;;;;0.70;0.70;;;8.70;99.90;;;;;;4749292;30;20534;-76
2021/05/18 01:24:21;;;;;;;1.65;1.58;;;8.60;99.90;;;;;;4752302;30;20391;-78
2021/05/18 01:26:49;;;;;;;0.60;0.60;;;8.50;99.90;;;;;;4737108;30;20060;-78
2021/05/18 01:29:19;;;;;;;0.82;0.82;;;8.60;99.90;;;;;;4736668;30;20071;-76
2021/05/18 01:31:47;;;;;;;0.52;0.52;;;8.60;99.90;;;;;;4733512;30;20420;-76
2021/05/18 01:34:16;;;;;;;0.50;0.50;;;8.60;99.90;;;;;;4734494;30;20052;-77
2021/05/18 01:36:46;;;;;;;0.82;0.63;;;8.50;99.90;;;;;;4747728;30;20063;-76
2021/05/18 01:45:11;;;;;;;0.52;0.47;;;8.60;99.90;;;;;;4736502;30;20057;-76
2021/05/18 01:47:45;;;;;;;0.50;0.50;;;8.60;99.90;;;;;;4752512;30;20060;-76
2021/05/18 01:50:16;;;;;;;0.57;0.57;;;8.60;99.90;;;;;;4751051;30;20074;-77
2021/05/18 01:52:44;;;;;;;0.52;0.52;;;8.50;99.90;;;;;;4751319;30;20048;-77
2021/05/18 01:55:19;;;;;;;0.70;0.60;;;8.50;99.90;;;;;;4736692;30;20056;-77
2021/05/18 01:57:47;;;;;;;0.50;0.50;;;8.50;99.90;;;;;;4735683;30;20052;-76
2021/05/18 02:00:18;;;;;;;0.47;0.45;;;8.40;99.90;;;;;;4751810;30;20065;-77
2021/05/18 02:02:51;;;;;;;0.40;0.40;;;8.40;99.90;;;;;;4752213;30;20080;-77
2021/05/18 02:05:30;;;;;;;0.60;0.60;;;8.40;99.90;;;;;;4735782;30;20052;-77
2021/05/18 02:08:30;;;;;;;0.57;0.57;;;8.40;99.90;;;;;;4717231;30;20052;-76
2021/05/18 02:11:01;;;;;;;1.95;0.60;;;8.50;99.90;;;;;;4740084;30;20051;-77
2021/05/18 02:13:31;;;;;;;0.40;0.40;;;8.40;99.90;;;;;;4721716;30;20064;-77
2021/05/18 02:16:10;;;;;;;0.43;0.43;;;8.40;99.90;;;;;;4735693;30;20424;-77
2021/05/18 02:19:12;;;;;;;0.82;0.63;;;8.40;99.90;;;;;;4752184;30;20060;-77
2021/05/18 02:25:00;;;;;;;0.75;0.57;;;8.40;99.90;;;;;;4751680;30;20075;-77
2021/05/18 02:27:47;;;;;;;0.40;0.40;;;8.40;99.90;;;;;;4736173;30;20052;-76
2021/05/18 02:30:16;;;;;;;0.45;0.45;;;8.30;99.90;;;;;;4750830;30;20063;-77
2021/05/18 02:32:47;;;;;;;1.75;0.60;;;8.40;99.90;;;;;;4734682;30;20075;-77
2021/05/18 02:35:34;;;;;;;0.70;0.70;;;8.40;99.90;;;;;;4751915;30;20402;-77
2021/05/18 02:38:03;;;;;;;0.40;0.40;;;8.40;99.90;;;;;;4734579;30;20056;-77
2021/05/18 02:40:31;;;;;;;0.43;0.43;;;8.30;99.90;;;;;;4735507;30;20577;-77
2021/05/18 02:43:00;;;;;;;0.60;0.60;;;8.30;99.90;;;;;;4751985;30;20067;-76
2021/05/18 02:45:37;;;;;;;0.82;0.50;;;8.30;99.90;;;;;;4751342;30;20415;-77
2021/05/18 02:50:54;;;;;;;0.50;0.50;;;8.30;99.90;;;;;;4734499;30;20061;-77
2021/05/18 02:53:42;;;;;;;0.60;0.60;;;8.30;99.90;;;;;;4748725;30;20426;-76
2021/05/18 02:59:08;;;;;;;4.68;1.38;;;8.30;99.90;;;;;;4751532;30;20059;-77
2021/05/18 03:01:36;;;;;;;0.50;0.50;;;8.30;99.90;;;;;;4750717;30;20052;-76
2021/05/18 03:04:05;;;;;;;0.80;0.80;;;8.30;99.90;;;;;;4750530;30;20085;-77
2021/05/18 03:06:34;;;;;;;0.60;0.60;;;8.30;99.90;;;;;;4751416;30;20059;-76
2021/05/18 03:09:10;;;;;;;0.40;0.40;;;8.20;99.90;;;;;;4750024;30;20056;-77
2021/05/18 03:11:39;;;;;;;1.75;0.50;;;8.20;99.90;;;;;;4734932;30;20196;-77
2021/05/18 03:14:09;;;;;;;0.40;0.40;;;8.20;99.90;;;;;;4750715;30;20048;-77
2021/05/18 03:16:38;;;;;;;0.50;0.50;;;8.20;99.90;;;;;;4750664;30;20056;-77
2021/05/18 03:19:09;;;;;;;0.40;0.40;;;8.20;99.90;;;;;;4751062;30;20491;-77
2021/05/18 03:21:39;;;;;;;0.80;0.80;;;8.30;99.90;;;;;;4750558;30;20059;-77
2021/05/18 03:24:07;;;;;;;0.60;0.60;;;8.30;99.90;;;;;;4749028;30;20064;-77
2021/05/18 03:26:42;;;;;;;0.40;0.40;;;8.20;99.90;;;;;;4750943;30;20060;-77
2021/05/18 03:29:30;;;;;;;0.70;0.50;;;8.20;99.90;;;;;;4749698;30;20052;-77
2021/05/18 03:34:45;;;;;;;0.40;0.40;;;8.10;99.90;;;;;;4730714;30;20059;-77
2021/05/18 03:37:26;;;;;;;0.70;0.70;;;8.20;99.90;;;;;;4731584;30;20048;-77
2021/05/18 03:40:00;;;;;;;0.38;0.38;;;8.20;99.90;;;;;;4750303;30;20421;-76
2021/05/18 03:42:38;;;;;;;2.10;0.85;;;8.20;99.90;;;;;;4750027;30;20056;-76
2021/05/18 04:17:26;;;;;;;1.05;0.68;;;8.40;99.90;;;;;;4749725;30;20060;-76
2021/05/18 04:20:16;;;;;;;0.60;0.60;;;8.40;99.90;;;;;;4750071;30;20063;-76
2021/05/18 04:23:09;;;;;;;1.17;0.68;;;8.40;99.90;;;;;;4746405;30;20052;-77
2021/05/18 04:53:20;;;;;;;0.50;0.50;;;8.70;99.90;;;;;;4732734;30;20127;-77
2021/05/18 05:06:14;;;;;;;0.77;0.55;;;8.80;99.90;;;;;;4752747;30;20090;-79
2021/05/18 05:07:12;;;;;;;0.55;0.55;;;8.80;99.90;;;;;;4752024;30;20071;-80
2021/05/18 05:09:44;;;;;;;0.93;0.93;;;8.80;99.90;;;;;;4752524;30;20049;-76
2021/05/18 05:14:49;;;;;;;0.50;0.50;;;8.80;99.90;;;;;;4752769;30;19937;-76
2021/05/18 05:17:17;;;;;;;2.28;1.15;;;8.80;99.90;;;;;;4738884;30;20073;-76
2021/05/18 05:19:45;;;;;;;1.40;0.50;;;8.80;99.90;;;;;;4735379;30;20067;-77
2021/05/18 05:22:14;;;;;;;1.13;0.52;;;8.90;99.90;;;;;;4738268;30;20371;-77
2021/05/18 05:24:44;;;;;;;0.40;0.40;;;8.90;99.90;;;;;;4727535;30;20057;-79
2021/05/18 05:27:12;;;;;;;1.13;0.60;;;8.90;99.90;;;;;;4739621;30;20524;-78
2021/05/18 05:30:00;;;;;;;3.03;0.40;;;8.90;99.90;;;;;;4720950;30;20052;-77
2021/05/18 05:32:29;;;;;;;0.80;0.70;;;9.00;99.90;;;;;;4749759;30;20050;-77
2021/05/18 05:34:56;;;;;;;0.45;0.45;;;9.10;99.90;;;;;;4752896;30;20067;-77
2021/05/18 05:37:26;;;;;;;0.57;0.57;;;9.10;99.90;;;;;;4733736;30;20404;-77
2021/05/18 05:39:54;;;;;;;0.50;0.50;;;9.20;99.90;;;;;;4735244;30;20086;-79
2021/05/18 05:42:24;;;;;;;0.45;0.45;;;9.20;99.90;;;;;;4745660;30;20056;-79
2021/05/18 05:44:52;;;;;;;0.75;0.75;;;9.20;99.90;;;;;;4734590;30;20061;-77
2021/05/18 05:47:19;;;;;;;0.52;0.52;;;9.60;99.90;;;;;;4734790;30;20068;-78
2021/05/18 05:49:48;;;;;;;0.80;0.80;;;10.20;99.90;;;;;;4734681;30;20045;-78
2021/05/18 05:52:22;;;;;;;0.40;0.40;;;10.70;99.90;;;;;;4733869;30;20053;-78
2021/05/18 05:54:51;;;;;;;0.50;0.50;;;11.00;99.90;;;;;;4735008;30;20065;-77
2021/05/18 05:57:19;;;;;;;0.43;0.43;;;10.80;99.90;;;;;;4740812;30;20051;-79
2021/05/18 05:59:48;;;;;;;0.50;0.50;;;10.40;99.90;;;;;;4751958;30;20048;-78
2021/05/18 06:02:16;;;;;;;1.33;0.70;;;10.20;99.90;;;;;;4751781;30;20498;-77
2021/05/18 06:04:44;;;;;;;5.82;0.88;;;10.10;99.90;;;;;;4751427;30;20459;-77
2021/05/18 06:07:12;;;;;;;3.00;0.63;;;10.00;99.90;;;;;;4747105;30;20515;-78
2021/05/18 06:09:40;;;;;;;0.70;0.70;;;9.80;99.90;;;;;;4739404;30;20053;-79
2021/05/18 06:43:06;;;;;;;0.80;0.65;;;9.40;99.90;;;;;;4750208;30;20052;-77
2021/05/18 06:47:52;;;;;;;0.43;0.43;;;9.40;99.90;;;;;;4735481;30;20415;-76
2021/05/18 06:50:31;;;;;;;0.60;0.60;;;9.30;99.90;;;;;;4741538;30;20052;-77
2021/05/18 06:53:01;;;;;;;0.70;0.70;;;9.30;99.90;;;;;;4749179;30;20049;-76
2021/05/18 06:55:33;;;;;;;0.60;0.60;;;9.30;99.90;;;;;;4735030;30;20052;-77
2021/05/18 06:58:13;;;;;;;1.30;0.80;;;9.30;99.90;;;;;;4750456;30;20056;-76
2021/05/18 07:00:42;;;;;;;0.70;0.70;;;9.30;99.90;;;;;;4750040;30;20052;-77
2021/05/18 07:03:33;;;;;;;1.15;0.38;;;9.30;99.90;;;;;;4749617;30;20063;-77
2021/05/18 07:06:49;;;;;;;0.50;0.50;;;9.40;99.90;;;;;;4750415;30;20063;-77
2021/05/18 07:11:25;;;;;;;0.60;0.60;;;9.60;99.90;;;;;;4750023;30;20534;-77
2021/05/18 07:13:55;;;;;;;0.47;0.47;;;9.70;99.90;;;;;;4749294;30;20056;-77
2021/05/18 07:16:23;;;;;;;0.65;0.65;;;9.80;99.90;;;;;;4750183;30;20049;-78
2021/05/18 07:18:51;;;;;;;0.70;0.70;;;10.00;99.90;;;;;;4734141;30;20063;-79
2021/05/18 07:21:20;;;;;;;0.70;0.70;;;10.10;99.90;;;;;;4749388;30;20422;-77
2021/05/18 07:23:51;;;;;;;0.50;0.50;;;10.40;99.90;;;;;;4749713;30;20063;-77
2021/05/18 07:26:19;;;;;;;0.53;0.53;;;10.80;99.90;;;;;;4733636;30;20051;-78
2021/05/18 07:28:47;;;;;;;0.63;0.40;;;11.10;99.90;;;;;;4749374;30;20294;-78
2021/05/18 07:31:16;;;;;;;0.93;0.93;;;11.10;99.90;;;;;;4749904;30;20063;-78
2021/05/18 07:33:45;;;;;;;0.40;0.40;;;11.20;99.90;;;;;;4734687;30;20044;-78
2021/05/18 07:36:13;;;;;;;0.50;0.50;;;11.00;99.90;;;;;;4739859;30;20064;-78
2021/05/18 07:38:43;;;;;;;0.80;0.80;;;10.90;99.90;;;;;;4741176;30;20056;-80
2021/05/18 07:41:11;;;;;;;1.02;0.50;;;10.80;99.90;;;;;;4740966;30;20324;-79
2021/05/18 07:43:39;;;;;;;0.40;0.40;;;10.60;99.90;;;;;;4734335;30;20603;-81
2021/05/18 07:46:14;;;;;;;2.25;0.55;;;10.50;99.90;;;;;;4733160;30;20044;-82
2021/05/18 07:49:07;;;;;;;0.57;0.57;;;10.40;99.90;;;;;;4718582;30;20048;-83
2021/05/18 07:51:48;;;;;;;0.63;0.63;;;10.60;99.90;;;;;;4749777;30;20056;-83
2021/05/18 07:59:56;;;;;;;0.47;0.47;;;11.80;99.90;;;;;;4749826;30;20064;-80
2021/05/18 08:05:17;;;;;;;6.47;0.65;;;12.60;99.90;;;;;;4748975;30;20056;-78
2021/05/18 08:05:19;;;;;;;0.30;0.30;;;13.80;97.40;;;;;;4732185;30;20052;-80
2021/05/18 08:07:52;;;;;;;0.40;0.40;;;13.60;95.50;;;;;;4731691;30;20073;-79
2021/05/18 08:12:51;;;;;;;0.40;0.40;;;11.70;99.90;;;;;;4749228;30;20052;-78
2021/05/18 10:27:08;;;;;;;0.52;0.52;;;10.00;99.90;;;;;;4731886;30;20089;-78
2021/05/18 10:34:48;;;;;;;0.55;0.55;;;10.10;99.90;;;;;;4751590;30;20591;-78
2021/05/18 10:37:38;;;;;;;2.15;0.50;;;10.30;99.90;;;;;;4749607;30;20546;-79
2021/05/18 10:40:26;;;;;;;3.90;2.72;;;10.30;99.90;;;;;;4750115;30;20064;-78
2021/05/18 10:43:12;;;;;;;0.30;0.30;;;10.60;99.90;;;;;;4741196;30;20075;-77
2021/05/18 10:46:03;;;;;;;0.40;0.40;;;11.00;99.90;;;;;;4749706;30;20048;-77
2021/05/18 10:48:36;;;;;;;0.40;0.40;;;11.30;99.90;;;;;;4732130;30;20052;-78
2021/05/18 10:51:31;;;;;;;0.40;0.40;;;11.60;99.90;;;;;;4743377;30;20063;-77
2021/05/18 10:54:17;;;;;;;1.10;1.05;;;11.60;99.40;;;;;;4748351;30;20056;-76
2021/05/18 10:57:01;;;;;;;0.40;0.40;;;11.70;99.80;;;;;;4750106;30;20513;-75
2021/05/18 10:59:39;;;;;;;0.50;0.50;;;11.90;98.40;;;;;;4748743;30;20063;-75
2021/05/18 11:02:19;;;;;;;0.77;0.40;;;11.80;98.70;;;;;;4741630;30;20433;-75
2021/05/18 11:04:55;;;;;;;0.40;0.40;;;11.90;99.90;;;;;;4750046;30;20613;-77
2021/05/18 11:07:37;;;;;;;1.42;0.70;;;11.80;98.00;;;;;;4737835;30;20072;-76
2021/05/18 11:10:16;;;;;;;0.40;0.40;;;11.70;99.80;;;;;;4731015;30;20079;-76
2021/05/18 11:12:47;;;;;;;0.30;0.30;;;12.10;99.90;;;;;;4732332;30;20053;-76
2021/05/18 11:15:17;;;;;;;0.30;0.30;;;11.60;98.10;;;;;;4738053;30;20056;-77
2021/05/18 11:17:49;;;;;;;0.98;0.75;;;11.40;98.70;;;;;;4748742;30;20052;-75
2021/05/18 11:26:06;;;;;;;0.63;0.57;;;11.50;99.90;;;;;;4741512;30;20052;-76
2021/05/18 11:28:46;;;;;;;0.55;0.47;;;11.20;99.90;;;;;;4750149;30;20048;-76
2021/05/18 11:31:20;;;;;;;0.50;0.50;;;11.20;99.30;;;;;;4737591;30;20073;-76
2021/05/18 11:33:53;;;;;;;0.65;0.40;;;11.30;99.90;;;;;;4716846;30;20052;-76
2021/05/18 11:36:24;;;;;;;0.55;0.55;;;11.50;99.50;;;;;;4742358;30;20044;-75
2021/05/18 11:38:58;;;;;;;0.40;0.40;;;11.70;98.70;;;;;;4749447;30;20568;-76
2021/05/18 11:41:29;;;;;;;0.73;0.63;;;11.90;97.60;;;;;;4749890;30;20056;-75
2021/05/18 11:43:58;;;;;;;0.40;0.40;;;11.90;98.40;;;;;;4750164;30;20068;-77
2021/05/18 11:46:29;;;;;;;1.02;0.47;;;12.50;99.70;;;;;;4750103;30;20060;-76
2021/05/18 11:49:07;;;;;;;0.40;0.40;;;12.80;95.00;;;;;;4749562;30;20055;-77
2021/05/18 11:51:46;;;;;;;1.13;0.50;;;12.90;99.40;;;;;;4750205;30;20064;-76
2021/05/18 11:54:29;;;;;;;1.10;0.50;;;13.00;95.10;;;;;;4733556;30;20428;-77
2021/05/18 11:56:59;;;;;;;0.80;0.80;;;12.60;99.40;;;;;;4733920;30;20067;-80
2021/05/18 11:59:27;;;;;;;0.80;0.80;;;12.40;97.60;;;;;;4749801;30;20071;-82
2021/05/18 12:02:05;;;;;;;0.90;0.65;;;11.60;99.20;;;;;;4749154;30;20048;-79
2021/05/18 12:04:39;;;;;;;0.65;0.65;;;11.30;99.90;;;;;;4749708;30;20108;-78
2021/05/18 12:07:10;;;;;;;1.45;0.65;;;11.30;99.90;;;;;;4749410;30;20071;-79
2021/05/18 12:09:40;;;;;;;0.40;0.40;;;11.20;99.90;;;;;;4737266;30;20075;-77
2021/05/18 12:12:10;;;;;;;0.60;0.60;;;11.30;99.90;;;;;;4745250;30;20514;-78
2021/05/18 12:14:47;;;;;;;0.50;0.50;;;11.30;99.90;;;;;;4750239;30;20067;-79
2021/05/18 12:17:26;;;;;;;0.65;0.47;;;11.40;99.90;;;;;;4749523;30;20044;-79
2021/05/18 12:19:54;;;;;;;0.45;0.45;;;11.20;99.10;;;;;;4734549;30;20064;-82
2021/05/18 12:22:22;;;;;;;0.30;0.30;;;10.70;99.90;;;;;;4732562;30;20055;-78
2021/05/18 12:24:51;;;;;;;0.38;0.38;;;10.70;99.90;;;;;;4749704;30;20052;-79
2021/05/18 12:27:19;;;;;;;0.30;0.30;;;10.80;99.90;;;;;;4750116;30;20067;-79
2021/05/18 12:29:59;;;;;;;0.35;0.35;;;10.90;99.90;;;;;;4749435;30;20055;-78
2021/05/18 12:32:35;;;;;;;0.77;0.77;;;11.00;99.90;;;;;;4733269;30;20055;-80
2021/05/18 12:35:06;;;;;;;0.30;0.30;;;11.30;99.90;;;;;;4734244;30;20097;-79
2021/05/18 12:37:45;;;;;;;1.23;0.38;;;11.40;98.60;;;;;;4747749;30;20512;-79
2021/05/18 12:40:26;;;;;;;2.63;0.60;;;11.20;99.60;;;;;;4731534;30;20604;-78
2021/05/18 12:43:06;;;;;;;0.45;0.45;;;11.60;99.10;;;;;;4733720;30;20063;-78
2021/05/18 12:45:34;;;;;;;0.40;0.40;;;12.10;96.60;;;;;;4748914;30;20503;-78
2021/05/18 12:48:04;;;;;;;0.30;0.30;;;11.90;95.40;;;;;;4749203;30;20064;-79
2021/05/18 12:50:51;;;;;;;0.40;0.40;;;12.10;95.60;;;;;;4733533;30;20060;-79
2021/05/18 12:53:32;;;;;;;0.40;0.40;;;12.40;94.00;;;;;;4748871;30;20060;-80
2021/05/18 12:56:00;;;;;;;0.30;0.30;;;12.60;96.40;;;;;;4749938;30;20052;-81
2021/05/18 12:58:33;;;;;;;0.30;0.30;;;12.30;92.30;;;;;;4747870;30;20926;-79
2021/05/18 13:01:11;;;;;;;0.45;0.45;;;12.40;95.90;;;;;;4749164;30;20055;-78
2021/05/18 13:03:42;;;;;;;1.67;1.10;;;12.90;98.20;;;;;;4749551;30;20155;-78
2021/05/18 13:06:12;;;;;;;6.60;0.50;;;12.80;93.50;;;;;;4733017;30;20511;-79
2021/05/18 13:08:41;;;;;;;0.35;0.35;;;12.70;95.10;;;;;;4718292;30;20056;-83
2021/05/18 13:13:48;;;;;;;0.40;0.40;;;12.50;93.10;;;;;;4749208;30;20048;-79
2021/05/18 13:16:19;;;;;;;0.40;0.40;;;12.50;94.00;;;;;;4748910;30;20423;-78
2021/05/18 13:19:04;;;;;;;0.50;0.50;;;12.60;93.50;;;;;;4737080;30;20302;-79
2021/05/18 13:21:38;;;;;;;0.35;0.35;;;12.70;93.90;;;;;;4752056;30;20052;-79
2021/05/18 13:26:40;;;;;;;6.40;1.10;;;13.00;96.10;;;;;;4752871;30;20064;-79
2021/05/18 13:29:20;;;;;;;0.38;0.30;;;13.00;94.90;;;;;;4750631;30;20070;-78
2021/05/18 13:31:51;;;;;;;0.30;0.30;;;13.40;93.70;;;;;;4752185;30;20387;-78
2021/05/18 13:34:39;;;;;;;0.40;0.40;;;13.60;94.80;;;;;;4750183;30;20048;-80
2021/05/18 13:37:07;;;;;;;0.30;0.30;;;13.90;93.50;;;;;;4751672;30;20051;-79
2021/05/18 13:39:35;;;;;;;0.30;0.30;;;13.70;96.70;;;;;;4751819;30;20177;-79
2021/05/18 13:42:04;;;;;;;0.50;0.30;;;13.70;94.50;;;;;;4752066;30;20052;-79
2021/05/18 13:44:32;;;;;;;0.43;0.43;;;13.20;94.80;;;;;;4751722;30;20054;-79
2021/05/18 13:47:00;;;;;;;3.05;0.65;;;13.10;93.50;;;;;;4750918;30;20056;-79
2021/05/18 13:49:28;;;;;;;0.30;0.30;;;12.90;93.60;;;;;;4752055;30;20064;-78
2021/05/18 13:51:59;;;;;;;0.30;0.30;;;13.10;92.50;;;;;;4735710;30;20067;-79
2021/05/18 13:54:32;;;;;;;0.82;0.63;;;12.80;91.90;;;;;;4751477;30;20533;-78
2021/05/18 13:57:00;;;;;;;0.40;0.40;;;12.70;92.50;;;;;;4751161;30;20052;-78
2021/05/18 13:59:28;;;;;;;0.43;0.43;;;12.80;93.40;;;;;;4736539;30;20085;-78
2021/05/18 14:01:58;;;;;;;0.35;0.35;;;12.70;93.00;;;;;;4751620;30;20059;-80
2021/05/18 14:04:26;;;;;;;0.30;0.30;;;12.60;93.60;;;;;;4735579;30;20048;-79
2021/05/18 14:09:51;;;;;;;0.70;0.57;;;12.40;92.70;;;;;;4742085;30;20052;-79
2021/05/18 14:12:20;;;;;;;0.45;0.45;;;12.60;94.40;;;;;;4720415;30;21338;-79
2021/05/18 14:14:47;;;;;;;0.40;0.40;;;13.10;94.40;;;;;;4735906;30;20064;-80
2021/05/18 14:17:15;;;;;;;0.50;0.50;;;13.40;93.00;;;;;;4751143;30;20063;-80
2021/05/18 14:19:44;;;;;;;1.25;0.57;;;13.40;92.90;;;;;;4752382;30;20056;-80
2021/05/18 14:22:12;;;;;;;0.65;0.55;;;12.80;93.10;;;;;;4750456;30;20059;-80
2021/05/18 14:24:54;;;;;;;10.05;3.50;;;12.70;93.40;;;;;;4751376;30;20051;-80
2021/05/18 14:27:22;;;;;;;0.60;0.60;;;12.50;93.50;;;;;;4752138;30;20060;-81
2021/05/18 14:29:53;;;;;;;0.50;0.50;;;12.50;93.10;;;;;;4750929;30;20410;-80
2021/05/18 14:32:21;;;;;;;0.90;0.50;;;12.40;93.20;;;;;;4736624;30;20052;-82
2021/05/18 14:34:51;;;;;;;0.55;0.55;;;12.40;94.60;;;;;;4735897;30;20431;-81
2021/05/18 14:37:23;;;;;;;2.00;1.90;;;12.40;94.40;;;;;;4735586;30;20059;-81
2021/05/18 14:45:13;;;;;;;0.47;0.47;;;13.00;93.50;;;;;;4734422;30;20388;-80
2021/05/18 14:55:47;;;;;;;0.50;0.50;;;13.80;91.40;;;;;;4724847;30;20052;-80
2021/05/18 14:58:16;;;;;;;0.68;0.50;;;13.50;91.70;;;;;;4739725;30;20052;-80
2021/05/18 15:00:43;;;;;;;7.50;0.70;;;13.20;94.90;;;;;;4745808;30;20052;-86
2021/05/18 15:03:12;;;;;;;0.98;0.93;;;13.00;94.10;;;;;;4717243;30;20514;-86
2021/05/18 15:05:40;;;;;;;0.50;0.50;;;13.10;94.40;;;;;;4700220;30;20065;-81
2021/05/18 15:08:09;;;;;;;0.70;0.50;;;12.90;94.40;;;;;;4718287;30;20407;-82
2021/05/18 15:10:40;;;;;;;1.15;0.50;;;12.80;94.50;;;;;;4725633;30;20259;-79
2021/05/18 15:13:14;;;;;;;3.83;0.50;;;12.50;95.30;;;;;;4732585;30;20064;-81
2021/05/18 15:15:41;;;;;;;2.05;0.60;;;11.90;96.80;;;;;;4733320;30;20061;-81
2021/05/18 15:18:10;;;;;;;0.30;0.30;;;11.30;97.70;;;;;;4731756;30;20067;-82
2021/05/18 15:20:39;;;;;;;0.40;0.40;;;10.80;99.50;;;;;;4731607;30;20064;-83
2021/05/18 15:23:07;;;;;;;0.38;0.38;;;10.60;99.40;;;;;;4717216;30;20057;-83
2021/05/18 15:25:35;;;;;;;0.50;0.50;;;10.40;99.70;;;;;;4731487;30;20052;-80
2021/05/18 15:28:03;;;;;;;0.38;0.38;;;10.40;99.90;;;;;;4732699;30;20063;-83
2021/05/18 15:30:32;;;;;;;0.40;0.40;;;10.40;99.90;;;;;;4717204;30;20063;-83
2021/05/18 15:33:00;;;;;;;0.50;0.50;;;10.30;99.80;;;;;;4731284;30;20515;-79
2021/05/18 15:35:27;;;;;;;5.38;0.50;;;10.20;99.90;;;;;;4733119;30;20064;-78
2021/05/18 15:37:55;;;;;;;0.45;0.45;;;10.30;99.90;;;;;;4732036;30;20608;-79
2021/05/18 15:40:23;;;;;;;0.47;0.47;;;10.30;99.90;;;;;;4730262;30;20052;-81
2021/05/18 15:42:51;;;;;;;0.50;0.50;;;10.30;99.90;;;;;;4732891;30;20057;-78
2021/05/18 15:45:19;;;;;;;0.40;0.40;;;10.40;99.90;;;;;;4732369;30;20079;-78
2021/05/18 15:47:47;;;;;;;0.50;0.50;;;10.40;99.90;;;;;;4732857;30;20407;-77
2021/05/18 15:50:15;;;;;;;3.63;0.65;;;10.50;99.90;;;;;;4732237;30;20053;-77
2021/05/18 15:52:43;;;;;;;0.50;0.50;;;10.50;99.90;;;;;;4731388;30;20041;-81
2021/05/18 15:55:11;;;;;;;0.40;0.40;;;10.60;99.90;;;;;;4733114;30;20064;-78
2021/05/18 15:57:39;;;;;;;0.90;0.90;;;10.70;99.90;;;;;;4732563;30;20056;-78
2021/05/18 16:00:08;;;;;;;0.98;0.60;;;10.90;99.90;;;;;;4732140;30;20067;-77
2021/05/18 16:02:43;;;;;;;0.40;0.40;;;11.20;99.90;;;;;;4733024;30;20510;-76
2021/05/18 16:05:12;;;;;;;0.50;0.50;;;11.20;98.50;;;;;;4741176;30;20052;-80
2021/05/18 16:07:43;;;;;;;0.60;0.60;;;11.00;98.40;;;;;;4749721;30;20063;-77
2021/05/18 16:10:10;;;;;;;0.50;0.50;;;11.00;99.00;;;;;;4733654;30;20049;-79
2021/05/18 16:12:38;;;;;;;0.30;0.30;;;11.40;97.90;;;;;;4749108;30;20067;-75
2021/05/18 16:15:07;;;;;;;0.70;0.57;;;11.90;98.30;;;;;;4750092;30;20064;-76
2021/05/18 16:17:37;;;;;;;0.47;0.47;;;11.80;97.80;;;;;;4749365;30;20055;-76
2021/05/18 16:20:06;;;;;;;0.40;0.40;;;11.50;97.60;;;;;;4749615;30;20057;-76
2021/05/18 16:22:34;;;;;;;0.35;0.35;;;11.30;97.60;;;;;;4748616;30;20056;-79
2021/05/18 16:25:02;;;;;;;0.50;0.50;;;11.10;98.30;;;;;;4747045;30;20487;-80
2021/05/18 16:27:31;;;;;;;3.15;0.70;;;11.00;98.10;;;;;;4743461;30;20060;-80
2021/05/18 16:30:00;;;;;;;0.40;0.40;;;11.00;98.50;;;;;;4733022;30;20063;-79
2021/05/18 16:32:27;;;;;;;0.40;0.40;;;11.10;98.00;;;;;;4748880;30;20570;-79
2021/05/18 16:34:55;;;;;;;1.55;0.63;;;11.20;98.00;;;;;;4748969;30;20064;-79
2021/05/18 16:37:23;;;;;;;0.30;0.30;;;11.20;98.50;;;;;;4745845;30;20044;-79
2021/05/18 16:39:52;;;;;;;0.40;0.40;;;11.20;97.60;;;;;;4748974;30;20056;-78
2021/05/18 16:42:20;;;;;;;0.60;0.60;;;11.20;98.00;;;;;;4749136;30;20423;-79
2021/05/18 16:44:48;;;;;;;0.40;0.40;;;11.10;97.90;;;;;;4732929;30;20494;-79
2021/05/18 16:47:18;;;;;;;0.55;0.55;;;11.10;98.80;;;;;;4749070;30;20056;-79
2021/05/18 16:49:46;;;;;;;0.40;0.40;;;11.10;98.80;;;;;;4749025;30;20388;-77
2021/05/18 16:52:14;;;;;;;0.57;0.57;;;11.20;98.60;;;;;;4749288;30;20518;-78
2021/05/18 16:54:42;;;;;;;0.40;0.40;;;11.20;98.50;;;;;;4753434;30;20059;-78
2021/05/18 16:57:10;;;;;;;0.50;0.50;;;11.20;99.00;;;;;;4752625;30;20075;-78
2021/05/18 16:59:38;;;;;;;0.50;0.50;;;11.20;98.60;;;;;;4752605;30;20059;-85
2021/05/18 17:02:07;;;;;;;0.47;0.47;;;11.20;98.90;;;;;;4741212;30;20051;-83
2021/05/18 17:04:35;;;;;;;1.27;0.70;;;11.10;98.50;;;;;;4753380;30;20056;-84
2021/05/18 17:07:04;;;;;;;0.40;0.40;;;11.00;98.90;;;;;;4753080;30;20060;-78
2021/05/18 17:09:32;;;;;;;0.30;0.30;;;11.10;98.70;;;;;;4752577;30;20082;-78
2021/05/18 17:12:02;;;;;;;0.95;0.63;;;11.10;99.60;;;;;;4752347;30;20633;-79
2021/05/18 17:14:30;;;;;;;0.73;0.63;;;11.10;99.20;;;;;;4753100;30;20396;-81
2021/05/18 17:16:58;;;;;;;0.40;0.40;;;11.10;99.90;;;;;;4752688;30;20550;-80
2021/05/18 17:19:29;;;;;;;0.73;0.60;;;11.20;99.00;;;;;;4752494;30;20052;-80
2021/05/18 17:21:58;;;;;;;0.70;0.70;;;11.30;99.80;;;;;;4751186;30;20052;-79
2021/05/18 17:24:26;;;;;;;1.30;0.70;;;11.40;99.60;;;;;;4750103;30;20494;-77
2021/05/18 17:26:55;;;;;;;1.63;0.77;;;11.40;98.90;;;;;;4736215;30;20056;-77
2021/05/18 17:29:27;;;;;;;8.63;0.65;;;11.40;99.80;;;;;;4735716;30;20067;-79
2021/05/18 17:31:59;;;;;;;0.40;0.40;;;11.30;98.30;;;;;;4747372;30;20067;-79
2021/05/18 17:34:28;;;;;;;2.17;1.65;;;11.20;99.70;;;;;;4735569;30;20055;-79
2021/05/18 17:36:57;;;;;;;0.40;0.40;;;11.20;99.70;;;;;;4750560;30;20063;-79
2021/05/18 17:39:26;;;;;;;0.85;0.50;;;11.20;99.60;;;;;;4751309;30;20427;-79
2021/05/18 17:41:56;;;;;;;0.50;0.47;;;11.10;99.90;;;;;;4750198;30;20883;-79
2021/05/18 17:44:27;;;;;;;0.60;0.60;;;11.10;99.90;;;;;;4751446;30;20059;-79
2021/05/18 17:46:55;;;;;;;0.40;0.40;;;11.30;99.90;;;;;;4751777;30;20063;-79
2021/05/18 17:49:23;;;;;;;0.50;0.50;;;11.30;99.90;;;;;;4749928;30;20518;-75
2021/05/18 17:51:51;;;;;;;0.60;0.50;;;11.30;99.90;;;;;;4751156;30;20060;-79
2021/05/18 17:54:21;;;;;;;0.57;0.57;;;11.30;99.90;;;;;;4750660;30;20059;-78
2021/05/18 17:56:49;;;;;;;0.40;0.40;;;11.20;99.90;;;;;;4748943;30;20055;-78
2021/05/18 17:59:18;;;;;;;0.40;0.40;;;11.10;99.90;;;;;;4751843;30;20068;-76
2021/05/18 18:01:46;;;;;;;0.43;0.43;;;11.10;99.90;;;;;;4743097;30;20053;-76
2021/05/18 18:04:17;;;;;;;0.63;0.60;;;11.10;99.90;;;;;;4731338;30;20077;-76
2021/05/18 18:06:53;;;;;;;0.40;0.40;;;11.10;99.90;;;;;;4734723;30;20052;-76
2021/05/18 18:09:23;;;;;;;0.38;0.38;;;11.10;99.90;;;;;;4743017;30;20044;-76
2021/05/18 18:11:51;;;;;;;0.68;0.68;;;11.00;99.90;;;;;;4747219;30;20060;-76
2021/05/18 18:14:20;;;;;;;0.82;0.50;;;11.10;99.90;;;;;;4733558;30;20055;-76
2021/05/18 18:16:48;;;;;;;0.60;0.60;;;11.10;99.90;;;;;;4749152;30;20530;-76